Adams, Nebraska
Current Conditions -  °F | °C
As of 7:35 AM on Sunday 23 Nov 2014 (Local Time) from KBIE Reporting Station
Haze Haze  
Wind Chill: 52°   Ceiling: 3400
Heat Index: 52°   Visibility: 3mi
Dew Point: 51°   Wind: 3mph
Humidity: 98%   Direction: 190°S
Pressure: 29.49"   Gusts: NA
Location:  40.46°N, 96.51°W
Report Text: KBIE 231335Z AUTO 19003KT 3SM BR OVC034 11/11 A2949 RMK AO2 T01100107
Loading
Personal Weather Stations






























Interactive Weather Map New forecast layout! Learn more

10-Day Weather Forecast

Advertisements
Track Severe Weather on mobile